Terminal Aerodrome Forecast
Issued by NWS Blacksburg, VA

Current Version | Previous Version | Graphics & Text | Print | Product List | Glossary On
Versions: 1 2 3 4 5 6 7 8 9 10 11 12 13 14 15 16 17 18 19 20 21 22 23
000
FTUS41 KRNK 290747 AAA
TAFBLF
TAF AMD
KBLF 290747Z 2908/3006 28005KT P6SM BKN026 OVC040
     FM291000 25008G16KT P6SM -SHRA BKN015 OVC035
      TEMPO 2911/2915 5SM -SHRA BR BKN009 OVC015
     FM291500 29009G18KT P6SM -RA BKN020 OVC090
     FM291800 29011KT P6SM BKN025 BKN100
     FM292100 29007KT P6SM SCT025=

USA.gov is the U.S. government's official web portal to all federal, state and local government web resources and services.